createdAt,value
2023-01-02T00:01:32.444Z,31.47
2023-01-02T00:04:00.601Z,30.40
2023-01-02T00:06:28.304Z,32.50
2023-01-02T00:08:55.592Z,31.80
2023-01-02T00:11:22.968Z,32.87
2023-01-02T00:13:50.515Z,29.43
2023-01-02T00:16:17.865Z,30.77
2023-01-02T00:18:45.363Z,30.67
2023-01-02T00:21:12.619Z,29.30
2023-01-02T00:23:40.245Z,29.77
2023-01-02T00:26:07.926Z,32.90
2023-01-02T00:28:37.003Z,31.20
2023-01-02T00:31:09.173Z,30.83
2023-01-02T00:33:37.624Z,31.27
2023-01-02T00:36:10.751Z,32.00
2023-01-02T00:38:39.560Z,30.57
2023-01-02T00:41:07.912Z,29.57
2023-01-02T00:43:35.726Z,30.83
2023-01-02T00:46:07.773Z,29.17
2023-01-02T00:48:39.178Z,29.20
2023-01-02T00:51:06.573Z,28.23
2023-01-02T00:53:35.950Z,27.57
2023-01-02T00:56:03.672Z,29.17
2023-01-02T00:58:30.969Z,27.63
2023-01-02T01:00:58.473Z,26.13
2023-01-02T01:03:25.856Z,25.70
2023-01-02T01:05:53.097Z,28.63
2023-01-02T01:08:20.533Z,30.37
2023-01-02T01:10:47.790Z,28.00
2023-01-02T01:13:15.461Z,27.07
2023-01-02T01:15:42.706Z,27.43
2023-01-02T01:18:10.127Z,28.60
2023-01-02T01:20:39.128Z,27.83
2023-01-02T01:23:06.578Z,24.80
2023-01-02T01:25:33.982Z,24.97
2023-01-02T01:28:01.688Z,27.80
2023-01-02T01:30:29.023Z,27.87
2023-01-02T01:32:56.450Z,25.27
2023-01-02T01:35:23.667Z,26.83
2023-01-02T01:37:51.381Z,26.37
2023-01-02T01:40:18.760Z,29.17
2023-01-02T01:42:50.093Z,23.73
2023-01-02T01:45:18.818Z,25.23
2023-01-02T01:47:55.182Z,26.53
2023-01-02T01:50:29.647Z,27.03
2023-01-02T01:53:03.978Z,24.77
2023-01-02T01:55:39.355Z,24.13
2023-01-02T01:58:13.391Z,24.13
2023-01-02T02:00:42.725Z,23.40
2023-01-02T02:03:18.148Z,25.77
2023-01-02T02:05:47.189Z,24.77
2023-01-02T02:08:28.224Z,26.50
2023-01-02T02:10:58.277Z,24.33
2023-01-02T02:13:25.870Z,24.17
2023-01-02T02:15:56.685Z,22.17
2023-01-02T02:18:42.344Z,25.13
2023-01-02T02:21:40.619Z,26.10
2023-01-02T02:24:23.179Z,22.20
2023-01-02T02:27:12.285Z,21.63
2023-01-02T02:30:03.901Z,22.30
2023-01-02T02:32:49.822Z,23.73
2023-01-02T02:35:49.424Z,21.67
2023-01-02T02:38:41.436Z,23.67
2023-01-02T02:41:26.936Z,21.20
2023-01-02T02:44:14.339Z,23.77
2023-01-02T02:46:59.051Z,21.70
2023-01-02T02:49:45.008Z,21.93
2023-01-02T02:52:41.203Z,22.63
2023-01-02T02:55:29.059Z,22.63
2023-01-02T02:57:58.857Z,22.60
2023-01-02T03:00:26.395Z,22.97
2023-01-02T03:02:53.794Z,22.47
2023-01-02T03:05:37.320Z,22.87
2023-01-02T03:08:24.752Z,22.87
2023-01-02T03:10:59.843Z,22.90
2023-01-02T03:13:51.842Z,20.77
2023-01-02T03:16:39.310Z,22.93
2023-01-02T03:19:27.913Z,23.43
2023-01-02T03:21:58.359Z,23.07
2023-01-02T03:24:26.408Z,23.73
2023-01-02T03:27:00.252Z,22.63
2023-01-02T03:29:39.278Z,22.07
2023-01-02T03:32:16.874Z,20.87
2023-01-02T03:34:48.079Z,20.00
2023-01-02T03:37:23.423Z,21.80
2023-01-02T03:39:57.390Z,20.50
2023-01-02T03:42:27.714Z,21.50
2023-01-02T03:45:17.906Z,22.03
2023-01-02T03:48:15.717Z,21.97
2023-01-02T03:50:53.890Z,21.70
2023-01-02T03:53:22.638Z,20.93
2023-01-02T03:56:12.429Z,19.27
2023-01-02T03:58:43.755Z,20.53
2023-01-02T04:01:24.411Z,20.93
2023-01-02T04:04:14.691Z,21.73
2023-01-02T04:06:48.870Z,19.50
2023-01-02T04:09:22.039Z,21.47
2023-01-02T04:11:58.239Z,20.03
2023-01-02T04:14:31.877Z,21.27
2023-01-02T04:17:01.426Z,20.17
2023-01-02T04:19:33.676Z,25.17
2023-01-02T04:22:06.029Z,20.40
2023-01-02T04:24:37.222Z,20.03
2023-01-02T04:27:27.204Z,20.47
2023-01-02T04:29:56.464Z,20.57
2023-01-02T04:32:29.891Z,20.63
2023-01-02T04:34:59.303Z,20.07
2023-01-02T04:37:32.517Z,21.07
2023-01-02T04:40:04.001Z,19.17
2023-01-02T04:42:31.544Z,20.07
2023-01-02T04:44:58.966Z,20.40
2023-01-02T04:47:26.431Z,19.33
2023-01-02T04:49:53.667Z,19.97
2023-01-02T04:52:21.111Z,22.67
2023-01-02T04:54:48.358Z,23.57
2023-01-02T04:57:15.597Z,19.50
2023-01-02T04:59:42.832Z,19.73
2023-01-02T05:02:10.913Z,21.37
2023-01-02T05:04:38.266Z,19.83
2023-01-02T05:07:05.852Z,19.93
2023-01-02T05:09:33.181Z,18.93
2023-01-02T05:12:00.593Z,20.07
2023-01-02T05:14:30.297Z,20.17
2023-01-02T05:16:57.614Z,19.50
2023-01-02T05:19:25.069Z,20.03
2023-01-02T05:22:10.850Z,19.63
2023-01-02T05:24:38.174Z,19.57
2023-01-02T05:27:05.436Z,18.13
2023-01-02T05:29:32.731Z,19.37
2023-01-02T05:31:59.986Z,22.47
2023-01-02T05:34:27.368Z,19.23
2023-01-02T05:36:54.652Z,19.70
2023-01-02T05:39:21.960Z,20.17
2023-01-02T05:41:49.216Z,20.53
2023-01-02T05:44:16.479Z,22.33
2023-01-02T05:46:44.958Z,20.83
2023-01-02T05:49:13.445Z,20.27
2023-01-02T05:51:40.848Z,19.87
2023-01-02T05:54:09.140Z,20.33
2023-01-02T05:56:36.565Z,19.00
2023-01-02T05:59:08.098Z,22.20
2023-01-02T06:01:35.949Z,20.00
2023-01-02T06:04:03.480Z,18.83
2023-01-02T06:06:34.206Z,18.10
2023-01-02T06:09:02.544Z,20.10
2023-01-02T06:11:30.572Z,19.77
2023-01-02T06:13:58.225Z,18.47
2023-01-02T06:16:26.343Z,19.63
2023-01-02T06:18:53.779Z,19.13
2023-01-02T06:21:22.370Z,19.97
2023-01-02T06:23:54.625Z,19.13
2023-01-02T06:26:22.633Z,21.73
2023-01-02T06:28:52.430Z,20.60
2023-01-02T06:31:23.068Z,18.03
2023-01-02T06:34:01.563Z,19.37
2023-01-02T06:36:33.981Z,19.67
2023-01-02T06:39:01.927Z,20.87
2023-01-02T06:41:29.349Z,21.00
2023-01-02T06:43:56.960Z,18.50
2023-01-02T06:46:24.676Z,30.33
2023-01-02T06:48:51.990Z,19.93
2023-01-02T06:51:21.681Z,18.93
2023-01-02T06:53:49.945Z,23.00
2023-01-02T06:56:18.443Z,18.53
2023-01-02T06:58:45.955Z,23.60
2023-01-02T07:01:19.325Z,21.87
2023-01-02T07:03:46.733Z,31.23
2023-01-02T07:06:16.502Z,22.67
2023-01-02T07:08:44.527Z,22.07
2023-01-02T07:11:16.614Z,20.93
2023-01-02T07:13:46.553Z,20.07
2023-01-02T07:16:16.282Z,19.63
2023-01-02T07:18:43.715Z,20.13
2023-01-02T07:21:12.234Z,20.37
2023-01-02T07:23:39.837Z,19.90
2023-01-02T07:26:07.673Z,19.03
2023-01-02T07:28:36.112Z,18.70
2023-01-02T07:31:09.721Z,19.30
2023-01-02T07:33:37.227Z,19.40
2023-01-02T07:36:07.707Z,18.90
2023-01-02T07:38:35.657Z,19.03
2023-01-02T07:41:02.953Z,20.97
2023-01-02T07:43:30.353Z,21.50
2023-01-02T07:46:04.642Z,19.53
2023-01-02T07:48:32.112Z,19.90
2023-01-02T07:51:04.718Z,18.53
2023-01-02T07:53:32.591Z,17.83
2023-01-02T07:56:01.492Z,18.20
2023-01-02T07:58:29.177Z,18.90
2023-01-02T08:01:04.961Z,18.17
2023-01-02T08:03:33.314Z,18.67
2023-01-02T08:06:11.851Z,19.50
2023-01-02T08:08:39.583Z,18.37
2023-01-02T08:11:07.532Z,17.50
2023-01-02T08:13:35.364Z,18.40
2023-01-02T08:16:14.822Z,19.83
2023-01-02T08:18:42.264Z,17.50
2023-01-02T08:21:09.930Z,19.57
2023-01-02T08:23:37.801Z,18.40
2023-01-02T08:26:07.668Z,18.13
2023-01-02T08:28:35.980Z,19.87
2023-01-02T08:31:12.296Z,18.20
2023-01-02T08:33:40.145Z,18.50
2023-01-02T08:36:08.652Z,17.93
2023-01-02T08:38:36.320Z,17.30
2023-01-02T08:41:04.615Z,17.90
2023-01-02T08:43:35.044Z,18.90
2023-01-02T08:46:07.384Z,19.20
2023-01-02T08:48:35.769Z,17.77
2023-01-02T08:51:03.645Z,17.90
2023-01-02T08:53:31.052Z,18.60
2023-01-02T08:56:37.833Z,18.00
2023-01-02T08:59:10.625Z,17.57
2023-01-02T09:01:39.253Z,16.53
2023-01-02T09:04:11.961Z,18.03
2023-01-02T09:06:40.079Z,17.60
2023-01-02T09:09:12.061Z,18.87
2023-01-02T09:11:50.580Z,17.70
2023-01-02T09:14:20.560Z,18.10
2023-01-02T09:16:49.176Z,16.43
2023-01-02T09:19:16.841Z,16.83
2023-01-02T09:21:44.898Z,17.80
2023-01-02T09:24:12.322Z,17.30
2023-01-02T09:26:41.877Z,17.40
2023-01-02T09:29:12.518Z,17.73
2023-01-02T09:31:40.533Z,17.93
2023-01-02T09:34:08.350Z,18.10
2023-01-02T09:36:35.996Z,18.57
2023-01-02T09:39:04.360Z,19.40
2023-01-02T09:41:50.176Z,20.33
2023-01-02T09:44:30.395Z,18.07
2023-01-02T09:47:05.343Z,16.53
2023-01-02T09:49:55.114Z,17.07
2023-01-02T09:52:27.784Z,17.30
2023-01-02T09:54:55.305Z,16.80
2023-01-02T09:57:53.698Z,16.80
2023-01-02T10:00:25.859Z,16.37
2023-01-02T10:03:16.913Z,16.40
2023-01-02T10:05:58.072Z,17.57
2023-01-02T10:08:46.744Z,17.03
2023-01-02T10:11:27.170Z,18.40
2023-01-02T10:14:20.258Z,18.27
2023-01-02T10:16:57.341Z,17.57
2023-01-02T10:19:55.906Z,17.30
2023-01-02T10:22:42.340Z,17.57
2023-01-02T10:25:33.052Z,17.37
2023-01-02T10:28:42.479Z,18.10
2023-01-02T10:31:23.828Z,17.97
2023-01-02T10:34:03.697Z,17.07
2023-01-02T10:36:42.785Z,16.60
2023-01-02T10:39:18.932Z,16.77
2023-01-02T10:41:50.103Z,17.60
2023-01-02T10:44:32.790Z,17.03
2023-01-02T10:47:15.527Z,17.67
2023-01-02T10:49:44.014Z,18.43
2023-01-02T10:52:18.602Z,17.77
2023-01-02T10:54:59.467Z,18.13
2023-01-02T10:57:44.350Z,17.60
2023-01-02T11:00:31.112Z,16.57
2023-01-02T11:03:05.732Z,16.97
2023-01-02T11:05:33.717Z,16.80
2023-01-02T11:08:11.380Z,15.20
2023-01-02T11:10:38.841Z,15.53
2023-01-02T11:13:15.482Z,15.93
2023-01-02T11:16:04.237Z,15.00
2023-01-02T11:18:34.704Z,14.77
2023-01-02T11:21:04.917Z,15.03
2023-01-02T11:23:37.057Z,16.50
2023-01-02T11:26:10.381Z,16.03
2023-01-02T11:28:40.403Z,17.77
2023-01-02T11:31:11.479Z,16.33
2023-01-02T11:33:39.062Z,15.33
2023-01-02T11:36:12.552Z,16.57
2023-01-02T11:39:00.744Z,15.47
2023-01-02T11:41:48.832Z,16.47
2023-01-02T11:44:20.710Z,15.63
2023-01-02T11:46:49.387Z,15.67
2023-01-02T11:49:23.607Z,16.23
2023-01-02T11:51:59.500Z,16.77
2023-01-02T11:54:38.149Z,16.67
2023-01-02T11:57:18.955Z,16.33
2023-01-02T11:59:48.819Z,16.07
2023-01-02T12:02:23.328Z,15.83
2023-01-02T12:04:50.853Z,15.53
2023-01-02T12:07:33.247Z,15.80
2023-01-02T12:10:16.526Z,15.50
2023-01-02T12:13:08.909Z,15.33
2023-01-02T12:15:53.591Z,15.30
2023-01-02T12:18:43.430Z,16.13
2023-01-02T12:21:24.823Z,15.10
2023-01-02T12:24:27.375Z,16.30
2023-01-02T12:27:04.765Z,15.47
2023-01-02T12:30:13.762Z,15.93
2023-01-02T12:32:59.502Z,15.53
2023-01-02T12:35:54.773Z,14.60
2023-01-02T12:38:51.596Z,16.03
2023-01-02T12:41:32.261Z,15.27
2023-01-02T12:44:18.962Z,17.00
2023-01-02T12:47:12.983Z,14.40
2023-01-02T12:49:40.192Z,15.57
2023-01-02T12:52:28.379Z,10.70
2023-01-02T12:55:30.889Z,11.63
2023-01-02T12:58:33.699Z,12.03
2023-01-02T13:01:17.380Z,11.90
2023-01-02T13:03:50.274Z,12.80
2023-01-02T13:06:43.453Z,13.80
2023-01-02T13:09:35.775Z,13.77
2023-01-02T13:12:16.602Z,13.80
2023-01-02T13:15:00.409Z,14.40
2023-01-02T13:17:52.586Z,14.27
2023-01-02T13:20:19.991Z,12.93
2023-01-02T13:23:24.996Z,13.60
2023-01-02T13:26:03.735Z,13.93
2023-01-02T13:28:31.457Z,14.30
2023-01-02T13:31:27.106Z,16.37
2023-01-02T13:33:54.080Z,19.33
2023-01-02T13:36:46.204Z,17.27
2023-01-02T13:39:21.521Z,16.03
2023-01-02T13:42:13.631Z,16.70
2023-01-02T13:44:48.341Z,16.67
2023-01-02T13:47:25.639Z,15.73
2023-01-02T13:50:15.900Z,16.77
2023-01-02T13:53:05.436Z,16.87
2023-01-02T13:55:56.933Z,17.30
2023-01-02T13:58:36.420Z,15.80
2023-01-02T14:01:22.424Z,17.63
2023-01-02T14:04:13.168Z,17.33
2023-01-02T14:06:46.106Z,16.77
2023-01-02T14:09:19.901Z,18.67
2023-01-02T14:11:59.920Z,18.50
2023-01-02T14:14:50.549Z,17.10
2023-01-02T14:17:52.384Z,17.03
2023-01-02T14:20:21.684Z,16.97
2023-01-02T14:22:52.746Z,17.50
2023-01-02T14:25:20.986Z,16.03
2023-01-02T14:28:00.774Z,16.03
2023-01-02T14:30:37.246Z,16.67
2023-01-02T14:33:07.730Z,16.67
2023-01-02T14:35:41.385Z,16.40
2023-01-02T14:38:25.050Z,15.20
2023-01-02T14:40:53.305Z,15.80
2023-01-02T14:43:31.403Z,15.93
2023-01-02T14:46:21.325Z,15.77
2023-01-02T14:49:01.372Z,16.80
2023-01-02T14:52:02.380Z,15.93
2023-01-02T14:54:38.248Z,15.30
2023-01-02T14:57:29.808Z,16.20
2023-01-02T15:00:14.237Z,16.57
2023-01-02T15:02:47.912Z,18.37
2023-01-02T15:05:26.841Z,17.03
2023-01-02T15:07:58.609Z,17.60
2023-01-02T15:10:26.281Z,16.77
2023-01-02T15:13:04.684Z,16.20
2023-01-02T15:15:37.619Z,16.27
2023-01-02T15:18:28.233Z,16.67
2023-01-02T15:21:02.750Z,17.43
2023-01-02T15:23:30.252Z,16.70
2023-01-02T15:26:33.182Z,16.43
2023-01-02T15:28:55.356Z,16.63
2023-01-02T15:31:23.109Z,16.67
2023-01-02T15:33:55.701Z,17.33
2023-01-02T15:36:34.553Z,16.57
2023-01-02T15:39:18.173Z,17.77
2023-01-02T15:41:55.550Z,17.07
2023-01-02T15:44:46.647Z,17.20
2023-01-02T15:47:15.207Z,17.93
2023-01-02T15:49:44.992Z,16.63
2023-01-02T15:52:24.336Z,15.70
2023-01-02T15:54:53.349Z,15.87
2023-01-02T15:57:26.005Z,15.80
2023-01-02T15:59:54.040Z,16.47
2023-01-02T16:02:42.909Z,19.23
2023-01-02T16:05:14.645Z,31.47
2023-01-02T16:07:48.114Z,42.70
2023-01-02T16:10:23.656Z,29.97
2023-01-02T16:13:40.268Z,36.23
2023-01-02T16:16:16.238Z,32.67
2023-01-02T16:18:48.678Z,37.43
2023-01-02T16:21:17.241Z,24.83
2023-01-02T16:23:50.754Z,23.97
2023-01-02T16:26:19.795Z,23.67
2023-01-02T16:28:50.711Z,20.80
2023-01-02T16:31:21.067Z,23.67
2023-01-02T16:33:48.915Z,35.80
2023-01-02T16:36:16.215Z,24.50
2023-01-02T16:39:00.375Z,25.73
2023-01-02T16:41:42.073Z,19.73
2023-01-02T16:44:14.768Z,18.70
2023-01-02T16:46:44.612Z,18.47
2023-01-02T16:49:15.671Z,21.90
2023-01-02T16:51:49.975Z,24.67
2023-01-02T16:54:19.928Z,18.97
2023-01-02T16:56:48.651Z,18.43
2023-01-02T16:59:16.119Z,18.03
2023-01-02T17:01:43.622Z,18.50
2023-01-02T17:04:15.247Z,18.20
2023-01-02T17:06:42.698Z,18.63
2023-01-02T17:09:10.019Z,22.97
2023-01-02T17:11:37.786Z,31.97
2023-01-02T17:14:05.336Z,26.33
2023-01-02T17:16:32.654Z,26.27
2023-01-02T17:19:00.038Z,27.93
2023-01-02T17:21:32.481Z,41.00
2023-01-02T17:24:00.308Z,27.50
2023-01-02T17:26:27.927Z,24.00
2023-01-02T17:28:55.200Z,25.37
2023-01-02T17:31:25.761Z,24.10
2023-01-02T17:33:53.399Z,22.40
2023-01-02T17:36:20.741Z,28.00
2023-01-02T17:38:48.243Z,24.87
2023-01-02T17:41:15.669Z,22.23
2023-01-02T17:44:01.273Z,20.03
2023-01-02T17:49:18.125Z,23.07
2023-01-02T17:51:45.547Z,24.77
2023-01-02T17:54:13.414Z,22.60
2023-01-02T17:56:42.455Z,21.60
2023-01-02T17:59:09.982Z,22.10
2023-01-02T18:01:37.536Z,23.23
2023-01-02T18:04:05.198Z,22.97
2023-01-02T18:06:32.984Z,23.17
2023-01-02T18:09:00.425Z,21.27
2023-01-02T18:11:27.880Z,22.30
2023-01-02T18:13:56.637Z,25.27
2023-01-02T18:16:29.362Z,28.73
2023-01-02T18:18:57.095Z,23.40
2023-01-02T18:21:29.874Z,20.53
2023-01-02T18:24:01.021Z,21.20
2023-01-02T18:26:30.727Z,17.87
2023-01-02T18:29:09.021Z,18.93
2023-01-02T18:31:42.440Z,20.67
2023-01-02T18:34:47.512Z,22.90
2023-01-02T18:37:17.880Z,18.23
2023-01-02T18:39:45.257Z,17.33
2023-01-02T18:42:17.972Z,18.20
2023-01-02T18:44:46.002Z,24.60
2023-01-02T18:47:27.168Z,19.03
2023-01-02T18:49:59.029Z,18.23
2023-01-02T18:52:31.664Z,19.70
2023-01-02T18:55:06.654Z,21.13
2023-01-02T18:57:44.828Z,17.17
2023-01-02T19:00:23.417Z,25.10
2023-01-02T19:02:50.742Z,18.70
2023-01-02T19:05:23.268Z,14.43
2023-01-02T19:07:50.969Z,17.13
2023-01-02T19:10:36.387Z,17.17
2023-01-02T19:13:11.935Z,18.57
2023-01-02T19:15:42.476Z,16.17
2023-01-02T19:18:24.812Z,18.20
2023-01-02T19:21:30.729Z,22.57
2023-01-02T19:24:04.811Z,17.73
2023-01-02T19:26:34.138Z,21.17
2023-01-02T19:29:07.802Z,17.43
2023-01-02T19:31:38.047Z,16.67
2023-01-02T19:34:36.298Z,16.73
2023-01-02T19:37:40.794Z,16.07
2023-01-02T19:40:19.859Z,17.73
2023-01-02T19:42:49.148Z,20.30
2023-01-02T19:45:22.531Z,19.17
2023-01-02T19:47:50.766Z,17.97
2023-01-02T19:50:20.926Z,17.83
2023-01-02T19:52:48.685Z,17.67
2023-01-02T19:55:17.890Z,17.60
2023-01-02T19:57:46.341Z,17.90
2023-01-02T20:00:15.767Z,17.67
2023-01-02T20:02:45.630Z,18.77
2023-01-02T20:05:21.036Z,17.00
2023-01-02T20:07:51.259Z,18.17
2023-01-02T20:10:18.715Z,17.23
2023-01-02T20:12:46.232Z,18.80
2023-01-02T20:15:17.928Z,18.60
2023-01-02T20:17:46.018Z,17.97
2023-01-02T20:20:19.439Z,19.33
2023-01-02T20:22:47.424Z,18.83
2023-01-02T20:25:15.990Z,18.63
2023-01-02T20:27:43.423Z,19.30
2023-01-02T20:30:11.698Z,19.20
2023-01-02T20:32:39.090Z,19.30
2023-01-02T20:35:07.107Z,19.13
2023-01-02T20:37:34.444Z,20.33
2023-01-02T20:40:01.934Z,18.20
2023-01-02T20:42:29.412Z,18.67
2023-01-02T20:44:56.797Z,21.23
2023-01-02T20:47:24.443Z,18.23
2023-01-02T20:49:51.886Z,16.57
2023-01-02T20:52:20.399Z,16.10
2023-01-02T20:57:18.346Z,15.53
2023-01-02T20:59:45.633Z,17.07
2023-01-02T21:02:13.221Z,17.33
2023-01-02T21:04:40.555Z,16.17
2023-01-02T21:07:07.998Z,16.03
2023-01-02T21:09:35.428Z,15.97
2023-01-02T21:12:02.840Z,16.10
2023-01-02T21:14:37.184Z,16.47
2023-01-02T21:17:05.157Z,17.53
2023-01-02T21:19:32.540Z,18.77
2023-01-02T21:22:00.264Z,18.30
2023-01-02T21:24:27.948Z,17.60
2023-01-02T21:26:55.329Z,18.63
2023-01-02T21:29:22.613Z,17.33
2023-01-02T21:31:50.007Z,17.47
2023-01-02T21:34:17.515Z,18.80
2023-01-02T21:36:44.828Z,19.90
2023-01-02T21:39:12.144Z,19.47
2023-01-02T21:41:57.800Z,18.73
2023-01-02T21:44:25.094Z,17.47
2023-01-02T21:46:52.466Z,19.83
2023-01-02T21:49:21.264Z,18.67
2023-01-02T21:51:48.754Z,18.77
2023-01-02T21:54:16.215Z,19.03
2023-01-02T21:56:43.455Z,18.90
2023-01-02T21:59:10.715Z,23.43
2023-01-02T22:01:38.185Z,20.07
2023-01-02T22:04:06.043Z,18.53
2023-01-02T22:06:34.311Z,17.83
2023-01-02T22:09:02.653Z,18.77
2023-01-02T22:11:48.457Z,17.80
2023-01-02T22:14:15.856Z,18.40
2023-01-02T22:16:43.305Z,20.37
2023-01-02T22:19:10.797Z,17.83
2023-01-02T22:21:38.056Z,18.57
2023-01-02T22:24:06.863Z,20.07
2023-01-02T22:26:36.245Z,19.67
2023-01-02T22:29:05.009Z,19.20
2023-01-02T22:31:33.249Z,18.70
2023-01-02T22:34:01.867Z,17.47
2023-01-02T22:36:31.620Z,15.57
2023-01-02T22:39:27.115Z,16.60
2023-01-02T22:41:50.363Z,16.70
2023-01-02T22:44:22.709Z,16.93
2023-01-02T22:46:55.624Z,16.97
2023-01-02T22:49:27.264Z,19.57
2023-01-02T22:52:11.656Z,17.40
2023-01-02T22:54:39.729Z,19.43
2023-01-02T22:57:12.437Z,19.73
2023-01-02T22:59:40.986Z,18.03
2023-01-02T23:02:18.445Z,19.43
2023-01-02T23:04:46.082Z,19.40
2023-01-02T23:07:24.548Z,18.23
2023-01-02T23:09:52.095Z,16.60
2023-01-02T23:12:19.354Z,16.93
2023-01-02T23:14:46.669Z,16.30
2023-01-02T23:17:32.347Z,16.60
2023-01-02T23:19:59.724Z,16.37
2023-01-02T23:22:26.961Z,15.83
2023-01-02T23:24:54.214Z,16.13
2023-01-02T23:27:21.497Z,14.30
2023-01-02T23:29:48.911Z,16.53
2023-01-02T23:32:16.339Z,16.10
2023-01-02T23:34:44.126Z,16.17
2023-01-02T23:37:11.499Z,15.67
2023-01-02T23:39:38.969Z,15.53
2023-01-02T23:42:06.596Z,16.50
2023-01-02T23:44:33.843Z,13.97
2023-01-02T23:47:07.051Z,16.73
2023-01-02T23:49:36.352Z,17.30
2023-01-02T23:52:05.213Z,15.67
2023-01-02T23:54:32.460Z,16.70
2023-01-02T23:56:59.868Z,19.07
2023-01-02T23:59:27.513Z,17.57
